Terminal Aerodrome Forecast
Issued by NWS Brownsville, TX

Current Version | Previous Version | Text Only | Print | Product List | Glossary Off
Versions: 1 2 3 4 5 6 7 8 9 10 11 12 13 14 15 16 17

000
FTUS44 KBRO 020520
TAFHRL
TAF
KHRL 020520Z 0206/0306 13005KT P6SM SKC
     FM021700 10008G17KT P6SM VCSH SCT030
     FM030000 11008KT P6SM SKC=

USA.gov is the U.S. government's official web portal to all federal, state and local government web resources and services.